Helene — V7VF9 — position and weather

sailwx.info

Track history (hours):
 
Tides and Currents Weather Stations Pressure Air Temp Water Temp Dewpoint Dewpoint Depression Visibility Wind Speed Wind Dir Waves Ship Positions

Helene

Last reported at 2014-Sep-19 13:29 UTC. Time now 2014-Sep-21 08:09 UTC.
Position N 26°50' W 079°44'.

Length 207 m; draft 10.2 m.

Type: Cargo ship. MMSI: 538090420.

Date/timePositionNaut miles runAvg speedWind from/ knotsBaromVisibWave heightAir tempDewpointWater temp
2014-Sep-19 13:29N 26°50' W 079°44'2122.4
2014-Sep-19 12:33N 26°30' W 079°46'2222.1
2014-Sep-19 11:33N 26°08' W 079°48'2221.8
2014-Sep-19 10:33N 25°46' W 079°51'  
2014-Sep-13 21:16N 25°36' W 079°39'1115.5
2014-Sep-13 20:33N 25°47' W 079°37'1615.8
2014-Sep-13 19:33N 26°02' W 079°34'1616.1
2014-Sep-13 18:33N 26°18' W 079°32'1616.4
2014-Sep-13 17:33N 26°34' W 079°30'  
2014-Sep-10 08:30N 39°43' W 075°31'  
Track history (hours):
 
Tides and Currents Weather Stations Pressure Air Temp Water Temp Dewpoint Dewpoint Depression Visibility Wind Speed Wind Dir Waves Ship Positions

Helene

Last reported at 2014-Sep-19 13:29 UTC. Time now 2014-Sep-21 08:09 UTC.
Position N 26°50' W 079°44'.

Length 207 m; draft 10.2 m.

Type: Cargo ship. MMSI: 538090420.

Date/timePositionNaut miles runAvg speedWind from/ knotsBaromVisibWave heightAir tempDewpointWater temp
2014-Sep-19 13:29N 26°50' W 079°44'2122.4
2014-Sep-19 12:33N 26°30' W 079°46'2222.1
2014-Sep-19 11:33N 26°08' W 079°48'2221.8
2014-Sep-19 10:33N 25°46' W 079°51'  
2014-Sep-13 21:16N 25°36' W 079°39'1115.5
2014-Sep-13 20:33N 25°47' W 079°37'1615.8
2014-Sep-13 19:33N 26°02' W 079°34'1616.1
2014-Sep-13 18:33N 26°18' W 079°32'1616.4
2014-Sep-13 17:33N 26°34' W 079°30'  
2014-Sep-10 08:30N 39°43' W 075°31'  

Dump ship's entire track history